Current Weather

Chicago Midway Intl

Chicago, Illinois (KMDW)

Report from: Sunday, February 5, 2023 11:53 PM CST
Current time: Monday, February 6, 2023 12:22 AM CST

Nearby weather
Weather history
Weather forecast

Temperature-1.7°C (28.9°F)
Wind chill-3.8°C (25.2°F)
Dew point-6.1°C (21.0°F)
Winds 3 kts (1.5 m/s, 3.5 mph) Northwest (320°)
Visibility10 mi. (16.1 km)
Clouds Sky clear
Altimeter30.16 in.Hg (1021 mB)
Relative humidity72 %
Density altitude-2,262 ft. (-690 m)
Sea-level pressure102.2 kPa (1022 mB, 30.19 in.Hg)
Max temp last 6 hours2.8°C (37.0°F)
Min temp last 6 hours-1.7°C (28.9°F)
Max temp last 24 hours6.1°C (43.0°F)
Min temp last 24 hours-1.7°C (28.9°F)
Remarks System requires maintenance
Automated weather observing station with precipitation discriminator
Pressure rising more quickly
Flight conditions Visual Meteorological Conditions
Raw dataKMDW 060553Z 32003KT 10SM CLR M02/M06 A3016 RMK AO2 SLP222 T10171061 10028 21017 400611017 53008 $
An error has occurred. This application may no longer respond until reloaded. Reload 🗙